sensor_id;sensor_type;location;lat;lon;timestamp;P1;durP1;ratioP1;P2;durP2;ratioP2
60352;SDS011;46196;52.970;6.954;2023-07-09T00:00:06;11.18;;;8.05;;
60352;SDS011;46196;52.970;6.954;2023-07-09T00:02:39;15.07;;;8.30;;
60352;SDS011;46196;52.970;6.954;2023-07-09T00:05:04;12.48;;;8.02;;
60352;SDS011;46196;52.970;6.954;2023-07-09T00:07:34;16.30;;;8.80;;
60352;SDS011;46196;52.970;6.954;2023-07-09T00:10:00;11.68;;;8.00;;
60352;SDS011;46196;52.970;6.954;2023-07-09T00:12:26;15.20;;;8.00;;
60352;SDS011;46196;52.970;6.954;2023-07-09T00:14:52;14.23;;;7.93;;
60352;SDS011;46196;52.970;6.954;2023-07-09T00:17:26;13.80;;;8.02;;
60352;SDS011;46196;52.970;6.954;2023-07-09T00:19:54;11.43;;;8.05;;
60352;SDS011;46196;52.970;6.954;2023-07-09T00:22:20;14.02;;;8.55;;
60352;SDS011;46196;52.970;6.954;2023-07-09T00:24:46;11.80;;;8.63;;
60352;SDS011;46196;52.970;6.954;2023-07-09T00:27:16;12.73;;;8.15;;
60352;SDS011;46196;52.970;6.954;2023-07-09T00:29:44;11.05;;;7.65;;
60352;SDS011;46196;52.970;6.954;2023-07-09T00:32:13;12.55;;;8.43;;
60352;SDS011;46196;52.970;6.954;2023-07-09T00:34:44;16.42;;;8.82;;
60352;SDS011;46196;52.970;6.954;2023-07-09T00:37:23;13.10;;;8.50;;
60352;SDS011;46196;52.970;6.954;2023-07-09T00:39:50;13.73;;;8.50;;
60352;SDS011;46196;52.970;6.954;2023-07-09T00:42:20;12.82;;;8.73;;
60352;SDS011;46196;52.970;6.954;2023-07-09T00:44:52;13.93;;;8.68;;
60352;SDS011;46196;52.970;6.954;2023-07-09T00:47:23;12.65;;;8.45;;
60352;SDS011;46196;52.970;6.954;2023-07-09T00:50:09;12.37;;;8.33;;
60352;SDS011;46196;52.970;6.954;2023-07-09T00:52:54;13.75;;;9.07;;
60352;SDS011;46196;52.970;6.954;2023-07-09T00:55:24;15.60;;;8.98;;
60352;SDS011;46196;52.970;6.954;2023-07-09T00:57:55;16.70;;;8.95;;
60352;SDS011;46196;52.970;6.954;2023-07-09T01:00:27;13.00;;;8.75;;
60352;SDS011;46196;52.970;6.954;2023-07-09T01:03:08;12.40;;;8.05;;
60352;SDS011;46196;52.970;6.954;2023-07-09T01:05:38;12.57;;;8.25;;
60352;SDS011;46196;52.970;6.954;2023-07-09T01:08:04;13.00;;;8.80;;
60352;SDS011;46196;52.970;6.954;2023-07-09T01:10:31;12.93;;;8.50;;
60352;SDS011;46196;52.970;6.954;2023-07-09T01:12:56;12.73;;;8.35;;
60352;SDS011;46196;52.970;6.954;2023-07-09T01:15:22;15.13;;;8.23;;
60352;SDS011;46196;52.970;6.954;2023-07-09T01:17:48;12.38;;;7.55;;
60352;SDS011;46196;52.970;6.954;2023-07-09T01:20:19;12.07;;;7.75;;
60352;SDS011;46196;52.970;6.954;2023-07-09T01:22:49;12.45;;;7.90;;
60352;SDS011;46196;52.970;6.954;2023-07-09T01:25:20;17.45;;;9.85;;
60352;SDS011;46196;52.970;6.954;2023-07-09T01:27:46;10.82;;;8.68;;
60352;SDS011;46196;52.970;6.954;2023-07-09T01:30:16;13.23;;;8.18;;
60352;SDS011;46196;52.970;6.954;2023-07-09T01:32:47;13.93;;;8.45;;
60352;SDS011;46196;52.970;6.954;2023-07-09T01:35:21;13.30;;;8.52;;
60352;SDS011;46196;52.970;6.954;2023-07-09T01:37:47;12.90;;;8.90;;
60352;SDS011;46196;52.970;6.954;2023-07-09T01:40:14;14.43;;;8.23;;
60352;SDS011;46196;52.970;6.954;2023-07-09T01:42:42;13.52;;;8.40;;
60352;SDS011;46196;52.970;6.954;2023-07-09T01:45:08;13.00;;;8.63;;
60352;SDS011;46196;52.970;6.954;2023-07-09T01:47:35;14.20;;;8.95;;
60352;SDS011;46196;52.970;6.954;2023-07-09T01:50:02;18.30;;;8.75;;
60352;SDS011;46196;52.970;6.954;2023-07-09T01:52:29;12.35;;;8.63;;
60352;SDS011;46196;52.970;6.954;2023-07-09T01:54:57;13.32;;;8.55;;
60352;SDS011;46196;52.970;6.954;2023-07-09T01:57:24;12.60;;;8.65;;
60352;SDS011;46196;52.970;6.954;2023-07-09T01:59:58;12.23;;;8.93;;
60352;SDS011;46196;52.970;6.954;2023-07-09T02:02:26;12.27;;;8.20;;
60352;SDS011;46196;52.970;6.954;2023-07-09T02:04:54;13.13;;;8.23;;
60352;SDS011;46196;52.970;6.954;2023-07-09T02:09:47;12.48;;;8.15;;
60352;SDS011;46196;52.970;6.954;2023-07-09T02:12:13;11.60;;;8.48;;
60352;SDS011;46196;52.970;6.954;2023-07-09T02:14:40;13.90;;;8.77;;
60352;SDS011;46196;52.970;6.954;2023-07-09T02:17:07;15.35;;;9.20;;
60352;SDS011;46196;52.970;6.954;2023-07-09T02:19:34;17.98;;;9.00;;
60352;SDS011;46196;52.970;6.954;2023-07-09T02:22:00;14.77;;;8.43;;
60352;SDS011;46196;52.970;6.954;2023-07-09T02:24:25;12.88;;;8.70;;
60352;SDS011;46196;52.970;6.954;2023-07-09T02:27:02;17.77;;;9.40;;
60352;SDS011;46196;52.970;6.954;2023-07-09T02:29:30;13.88;;;8.23;;
60352;SDS011;46196;52.970;6.954;2023-07-09T02:31:57;12.52;;;8.60;;
60352;SDS011;46196;52.970;6.954;2023-07-09T02:34:24;15.02;;;9.10;;
60352;SDS011;46196;52.970;6.954;2023-07-09T02:36:54;16.70;;;9.07;;
60352;SDS011;46196;52.970;6.954;2023-07-09T02:39:21;13.05;;;8.90;;
60352;SDS011;46196;52.970;6.954;2023-07-09T02:41:48;12.43;;;8.43;;
60352;SDS011;46196;52.970;6.954;2023-07-09T02:44:14;15.75;;;9.23;;
60352;SDS011;46196;52.970;6.954;2023-07-09T02:46:40;13.32;;;8.88;;
60352;SDS011;46196;52.970;6.954;2023-07-09T02:49:05;14.48;;;8.30;;
60352;SDS011;46196;52.970;6.954;2023-07-09T02:51:32;15.15;;;8.73;;
60352;SDS011;46196;52.970;6.954;2023-07-09T02:53:58;15.60;;;9.20;;
60352;SDS011;46196;52.970;6.954;2023-07-09T02:56:26;14.15;;;9.10;;
60352;SDS011;46196;52.970;6.954;2023-07-09T02:58:51;14.32;;;8.88;;
60352;SDS011;46196;52.970;6.954;2023-07-09T03:01:18;14.95;;;8.90;;
60352;SDS011;46196;52.970;6.954;2023-07-09T03:03:46;16.38;;;9.02;;
60352;SDS011;46196;52.970;6.954;2023-07-09T03:06:12;15.23;;;8.80;;
60352;SDS011;46196;52.970;6.954;2023-07-09T03:08:38;13.57;;;8.77;;
60352;SDS011;46196;52.970;6.954;2023-07-09T03:11:13;20.23;;;9.23;;
60352;SDS011;46196;52.970;6.954;2023-07-09T03:13:40;16.40;;;8.70;;
60352;SDS011;46196;52.970;6.954;2023-07-09T03:16:07;13.82;;;7.90;;
60352;SDS011;46196;52.970;6.954;2023-07-09T03:18:33;22.95;;;11.07;;
60352;SDS011;46196;52.970;6.954;2023-07-09T03:20:59;13.48;;;7.82;;
60352;SDS011;46196;52.970;6.954;2023-07-09T03:23:24;13.95;;;8.85;;
60352;SDS011;46196;52.970;6.954;2023-07-09T03:25:51;15.15;;;9.00;;
60352;SDS011;46196;52.970;6.954;2023-07-09T03:28:16;13.60;;;7.68;;
60352;SDS011;46196;52.970;6.954;2023-07-09T03:30:43;13.55;;;8.68;;
60352;SDS011;46196;52.970;6.954;2023-07-09T03:33:10;13.40;;;8.65;;
60352;SDS011;46196;52.970;6.954;2023-07-09T03:35:37;13.60;;;8.07;;
60352;SDS011;46196;52.970;6.954;2023-07-09T03:38:04;14.25;;;8.30;;
60352;SDS011;46196;52.970;6.954;2023-07-09T03:40:30;13.85;;;8.75;;
60352;SDS011;46196;52.970;6.954;2023-07-09T03:42:56;13.93;;;9.05;;
60352;SDS011;46196;52.970;6.954;2023-07-09T03:45:22;14.23;;;8.27;;
60352;SDS011;46196;52.970;6.954;2023-07-09T03:47:48;11.93;;;7.68;;
60352;SDS011;46196;52.970;6.954;2023-07-09T03:50:13;12.55;;;8.32;;
60352;SDS011;46196;52.970;6.954;2023-07-09T03:52:39;28.35;;;16.50;;
60352;SDS011;46196;52.970;6.954;2023-07-09T03:55:05;16.15;;;9.15;;
60352;SDS011;46196;52.970;6.954;2023-07-09T03:57:32;17.02;;;12.63;;
60352;SDS011;46196;52.970;6.954;2023-07-09T03:59:58;15.65;;;9.13;;
60352;SDS011;46196;52.970;6.954;2023-07-09T04:02:24;11.88;;;8.68;;
60352;SDS011;46196;52.970;6.954;2023-07-09T04:04:50;14.73;;;9.30;;
60352;SDS011;46196;52.970;6.954;2023-07-09T04:07:15;12.48;;;8.40;;
60352;SDS011;46196;52.970;6.954;2023-07-09T04:09:42;15.20;;;9.68;;
60352;SDS011;46196;52.970;6.954;2023-07-09T04:12:08;12.77;;;8.57;;
60352;SDS011;46196;52.970;6.954;2023-07-09T04:14:34;18.08;;;10.07;;
60352;SDS011;46196;52.970;6.954;2023-07-09T04:17:00;14.73;;;10.15;;
60352;SDS011;46196;52.970;6.954;2023-07-09T04:19:26;14.00;;;8.98;;
60352;SDS011;46196;52.970;6.954;2023-07-09T04:21:52;16.90;;;9.00;;
60352;SDS011;46196;52.970;6.954;2023-07-09T04:24:18;16.30;;;9.95;;
60352;SDS011;46196;52.970;6.954;2023-07-09T04:26:44;15.40;;;8.95;;
60352;SDS011;46196;52.970;6.954;2023-07-09T04:29:11;16.48;;;9.35;;
60352;SDS011;46196;52.970;6.954;2023-07-09T04:31:39;13.38;;;9.15;;
60352;SDS011;46196;52.970;6.954;2023-07-09T04:34:05;13.80;;;9.02;;
60352;SDS011;46196;52.970;6.954;2023-07-09T04:36:32;14.32;;;9.55;;
60352;SDS011;46196;52.970;6.954;2023-07-09T04:38:58;17.00;;;10.07;;
60352;SDS011;46196;52.970;6.954;2023-07-09T04:41:24;15.70;;;9.75;;
60352;SDS011;46196;52.970;6.954;2023-07-09T04:43:49;14.75;;;8.70;;
60352;SDS011;46196;52.970;6.954;2023-07-09T04:46:15;16.60;;;9.45;;
60352;SDS011;46196;52.970;6.954;2023-07-09T04:48:41;15.63;;;9.48;;
60352;SDS011;46196;52.970;6.954;2023-07-09T04:51:08;19.23;;;9.38;;
60352;SDS011;46196;52.970;6.954;2023-07-09T04:53:33;15.50;;;10.20;;
60352;SDS011;46196;52.970;6.954;2023-07-09T04:55:59;17.15;;;10.43;;
60352;SDS011;46196;52.970;6.954;2023-07-09T04:58:27;16.15;;;10.20;;
60352;SDS011;46196;52.970;6.954;2023-07-09T05:00:56;18.00;;;10.20;;
60352;SDS011;46196;52.970;6.954;2023-07-09T05:03:22;15.95;;;10.93;;
60352;SDS011;46196;52.970;6.954;2023-07-09T05:05:48;17.10;;;10.88;;
60352;SDS011;46196;52.970;6.954;2023-07-09T05:08:14;17.30;;;10.30;;
60352;SDS011;46196;52.970;6.954;2023-07-09T05:10:45;15.60;;;10.10;;
60352;SDS011;46196;52.970;6.954;2023-07-09T05:13:14;16.08;;;11.13;;
60352;SDS011;46196;52.970;6.954;2023-07-09T05:15:41;19.63;;;10.88;;
60352;SDS011;46196;52.970;6.954;2023-07-09T05:18:10;21.55;;;10.68;;
60352;SDS011;46196;52.970;6.954;2023-07-09T05:20:39;19.13;;;11.07;;
60352;SDS011;46196;52.970;6.954;2023-07-09T05:23:06;18.27;;;10.88;;
60352;SDS011;46196;52.970;6.954;2023-07-09T05:25:33;18.75;;;10.80;;
60352;SDS011;46196;52.970;6.954;2023-07-09T05:27:59;19.15;;;10.45;;
60352;SDS011;46196;52.970;6.954;2023-07-09T05:30:25;19.98;;;11.68;;
60352;SDS011;46196;52.970;6.954;2023-07-09T05:32:51;18.60;;;11.10;;
60352;SDS011;46196;52.970;6.954;2023-07-09T05:35:18;19.98;;;11.50;;
60352;SDS011;46196;52.970;6.954;2023-07-09T05:37:44;18.55;;;10.75;;
60352;SDS011;46196;52.970;6.954;2023-07-09T05:40:11;26.80;;;12.10;;
60352;SDS011;46196;52.970;6.954;2023-07-09T05:42:38;17.30;;;10.55;;
60352;SDS011;46196;52.970;6.954;2023-07-09T05:45:04;19.00;;;12.38;;
60352;SDS011;46196;52.970;6.954;2023-07-09T05:47:30;19.60;;;12.30;;
60352;SDS011;46196;52.970;6.954;2023-07-09T05:49:55;19.30;;;11.65;;
60352;SDS011;46196;52.970;6.954;2023-07-09T05:52:22;19.20;;;11.65;;
60352;SDS011;46196;52.970;6.954;2023-07-09T05:54:49;19.30;;;11.55;;
60352;SDS011;46196;52.970;6.954;2023-07-09T05:57:16;19.83;;;11.98;;
60352;SDS011;46196;52.970;6.954;2023-07-09T05:59:42;18.02;;;12.65;;
60352;SDS011;46196;52.970;6.954;2023-07-09T06:02:12;19.13;;;11.07;;
60352;SDS011;46196;52.970;6.954;2023-07-09T06:04:39;28.60;;;12.35;;
60352;SDS011;46196;52.970;6.954;2023-07-09T06:07:05;16.92;;;11.00;;
60352;SDS011;46196;52.970;6.954;2023-07-09T06:09:31;23.60;;;12.25;;
60352;SDS011;46196;52.970;6.954;2023-07-09T06:11:57;16.10;;;10.95;;
60352;SDS011;46196;52.970;6.954;2023-07-09T06:14:23;16.70;;;11.05;;
60352;SDS011;46196;52.970;6.954;2023-07-09T06:16:49;21.02;;;12.20;;
60352;SDS011;46196;52.970;6.954;2023-07-09T06:19:14;20.70;;;10.95;;
60352;SDS011;46196;52.970;6.954;2023-07-09T06:21:40;21.00;;;12.05;;
60352;SDS011;46196;52.970;6.954;2023-07-09T06:24:06;18.13;;;10.80;;
60352;SDS011;46196;52.970;6.954;2023-07-09T06:26:33;17.45;;;11.43;;
60352;SDS011;46196;52.970;6.954;2023-07-09T06:28:58;15.98;;;10.85;;
60352;SDS011;46196;52.970;6.954;2023-07-09T06:31:24;18.73;;;11.20;;
60352;SDS011;46196;52.970;6.954;2023-07-09T06:33:50;19.55;;;11.05;;
60352;SDS011;46196;52.970;6.954;2023-07-09T06:36:16;17.27;;;11.10;;
60352;SDS011;46196;52.970;6.954;2023-07-09T06:38:44;17.60;;;11.10;;
60352;SDS011;46196;52.970;6.954;2023-07-09T06:41:10;24.08;;;12.85;;
60352;SDS011;46196;52.970;6.954;2023-07-09T06:43:36;19.65;;;11.00;;
60352;SDS011;46196;52.970;6.954;2023-07-09T06:46:05;20.38;;;11.32;;
60352;SDS011;46196;52.970;6.954;2023-07-09T06:50:59;20.77;;;12.50;;
60352;SDS011;46196;52.970;6.954;2023-07-09T06:53:26;21.85;;;12.02;;
60352;SDS011;46196;52.970;6.954;2023-07-09T06:55:52;21.23;;;11.35;;
60352;SDS011;46196;52.970;6.954;2023-07-09T06:58:20;16.35;;;11.00;;
60352;SDS011;46196;52.970;6.954;2023-07-09T07:00:50;22.48;;;10.90;;
60352;SDS011;46196;52.970;6.954;2023-07-09T07:03:16;21.45;;;10.82;;
60352;SDS011;46196;52.970;6.954;2023-07-09T07:05:46;19.48;;;11.30;;
60352;SDS011;46196;52.970;6.954;2023-07-09T07:08:18;23.70;;;12.23;;
60352;SDS011;46196;52.970;6.954;2023-07-09T07:10:45;18.42;;;11.63;;
60352;SDS011;46196;52.970;6.954;2023-07-09T07:13:13;19.63;;;10.50;;
60352;SDS011;46196;52.970;6.954;2023-07-09T07:15:39;16.95;;;10.63;;
60352;SDS011;46196;52.970;6.954;2023-07-09T07:18:06;18.67;;;10.80;;
60352;SDS011;46196;52.970;6.954;2023-07-09T07:20:33;19.02;;;11.57;;
60352;SDS011;46196;52.970;6.954;2023-07-09T07:22:58;18.08;;;10.93;;
60352;SDS011;46196;52.970;6.954;2023-07-09T07:25:25;16.30;;;10.70;;
60352;SDS011;46196;52.970;6.954;2023-07-09T07:27:51;19.60;;;11.40;;
60352;SDS011;46196;52.970;6.954;2023-07-09T07:30:17;19.63;;;11.43;;
60352;SDS011;46196;52.970;6.954;2023-07-09T07:32:46;19.52;;;10.30;;
60352;SDS011;46196;52.970;6.954;2023-07-09T07:35:14;19.00;;;10.57;;
60352;SDS011;46196;52.970;6.954;2023-07-09T07:37:40;21.02;;;11.32;;
60352;SDS011;46196;52.970;6.954;2023-07-09T07:40:06;18.15;;;11.50;;
60352;SDS011;46196;52.970;6.954;2023-07-09T07:42:33;18.05;;;10.60;;
60352;SDS011;46196;52.970;6.954;2023-07-09T07:44:59;18.25;;;10.85;;
60352;SDS011;46196;52.970;6.954;2023-07-09T07:47:25;17.73;;;10.18;;
60352;SDS011;46196;52.970;6.954;2023-07-09T07:49:52;17.35;;;10.82;;
60352;SDS011;46196;52.970;6.954;2023-07-09T07:52:19;21.42;;;10.52;;
60352;SDS011;46196;52.970;6.954;2023-07-09T07:54:44;19.88;;;10.95;;
60352;SDS011;46196;52.970;6.954;2023-07-09T07:57:10;17.58;;;9.32;;
60352;SDS011;46196;52.970;6.954;2023-07-09T07:59:38;16.85;;;10.30;;
60352;SDS011;46196;52.970;6.954;2023-07-09T08:02:05;17.38;;;10.85;;
60352;SDS011;46196;52.970;6.954;2023-07-09T08:04:35;16.92;;;10.48;;
60352;SDS011;46196;52.970;6.954;2023-07-09T08:07:00;20.10;;;10.50;;
60352;SDS011;46196;52.970;6.954;2023-07-09T08:09:26;16.70;;;10.35;;
60352;SDS011;46196;52.970;6.954;2023-07-09T08:11:52;15.20;;;9.98;;
60352;SDS011;46196;52.970;6.954;2023-07-09T08:14:18;19.77;;;9.52;;
60352;SDS011;46196;52.970;6.954;2023-07-09T08:16:44;16.73;;;9.02;;
60352;SDS011;46196;52.970;6.954;2023-07-09T08:19:09;13.13;;;9.30;;
60352;SDS011;46196;52.970;6.954;2023-07-09T08:21:35;13.60;;;8.98;;
60352;SDS011;46196;52.970;6.954;2023-07-09T08:24:01;16.95;;;9.55;;
60352;SDS011;46196;52.970;6.954;2023-07-09T08:26:27;16.05;;;9.15;;
60352;SDS011;46196;52.970;6.954;2023-07-09T08:28:53;16.45;;;9.18;;
60352;SDS011;46196;52.970;6.954;2023-07-09T08:31:19;14.77;;;9.10;;
60352;SDS011;46196;52.970;6.954;2023-07-09T08:33:45;14.98;;;9.40;;
60352;SDS011;46196;52.970;6.954;2023-07-09T08:36:11;14.52;;;8.95;;
60352;SDS011;46196;52.970;6.954;2023-07-09T08:38:38;15.55;;;9.55;;
60352;SDS011;46196;52.970;6.954;2023-07-09T08:49:02;13.65;;;8.55;;
60352;SDS011;46196;52.970;6.954;2023-07-09T08:51:33;14.50;;;8.07;;
60352;SDS011;46196;52.970;6.954;2023-07-09T08:54:03;13.07;;;8.45;;
60352;SDS011;46196;52.970;6.954;2023-07-09T08:56:38;16.88;;;8.88;;
60352;SDS011;46196;52.970;6.954;2023-07-09T08:59:03;14.55;;;8.15;;
60352;SDS011;46196;52.970;6.954;2023-07-09T09:01:39;15.18;;;8.63;;
60352;SDS011;46196;52.970;6.954;2023-07-09T09:04:36;12.55;;;8.32;;
60352;SDS011;46196;52.970;6.954;2023-07-09T09:09:37;12.48;;;7.93;;
60352;SDS011;46196;52.970;6.954;2023-07-09T09:12:13;11.90;;;8.50;;
60352;SDS011;46196;52.970;6.954;2023-07-09T09:14:47;13.02;;;8.20;;
60352;SDS011;46196;52.970;6.954;2023-07-09T09:17:26;17.25;;;8.48;;
60352;SDS011;46196;52.970;6.954;2023-07-09T09:19:59;14.65;;;8.73;;
60352;SDS011;46196;52.970;6.954;2023-07-09T09:22:43;11.23;;;7.80;;
60352;SDS011;46196;52.970;6.954;2023-07-09T09:27:47;11.63;;;8.68;;
60352;SDS011;46196;52.970;6.954;2023-07-09T09:30:13;15.40;;;8.15;;
60352;SDS011;46196;52.970;6.954;2023-07-09T09:32:45;15.07;;;7.82;;
60352;SDS011;46196;52.970;6.954;2023-07-09T09:35:18;16.50;;;7.82;;
60352;SDS011;46196;52.970;6.954;2023-07-09T09:37:52;15.65;;;7.45;;
60352;SDS011;46196;52.970;6.954;2023-07-09T09:40:19;13.43;;;7.15;;
60352;SDS011;46196;52.970;6.954;2023-07-09T09:42:48;11.77;;;7.10;;
60352;SDS011;46196;52.970;6.954;2023-07-09T09:45:16;12.70;;;7.10;;
60352;SDS011;46196;52.970;6.954;2023-07-09T09:47:47;13.27;;;7.50;;
60352;SDS011;46196;52.970;6.954;2023-07-09T09:50:17;10.73;;;7.40;;
60352;SDS011;46196;52.970;6.954;2023-07-09T09:52:44;13.68;;;7.78;;
60352;SDS011;46196;52.970;6.954;2023-07-09T09:55:16;12.23;;;7.47;;
60352;SDS011;46196;52.970;6.954;2023-07-09T09:57:51;13.25;;;8.02;;
60352;SDS011;46196;52.970;6.954;2023-07-09T10:00:19;13.65;;;7.55;;
60352;SDS011;46196;52.970;6.954;2023-07-09T10:02:48;10.80;;;7.50;;
60352;SDS011;46196;52.970;6.954;2023-07-09T10:05:14;13.60;;;7.45;;
60352;SDS011;46196;52.970;6.954;2023-07-09T10:10:32;11.43;;;7.80;;
60352;SDS011;46196;52.970;6.954;2023-07-09T10:13:04;9.02;;;6.97;;
60352;SDS011;46196;52.970;6.954;2023-07-09T10:23:57;9.77;;;6.68;;
60352;SDS011;46196;52.970;6.954;2023-07-09T10:26:32;9.33;;;6.73;;
60352;SDS011;46196;52.970;6.954;2023-07-09T10:31:30;10.85;;;6.85;;
60352;SDS011;46196;52.970;6.954;2023-07-09T10:39:32;9.52;;;5.90;;
60352;SDS011;46196;52.970;6.954;2023-07-09T10:42:00;8.20;;;6.18;;
60352;SDS011;46196;52.970;6.954;2023-07-09T10:44:33;14.60;;;6.32;;
60352;SDS011;46196;52.970;6.954;2023-07-09T10:47:04;12.50;;;6.47;;
60352;SDS011;46196;52.970;6.954;2023-07-09T10:49:35;10.02;;;5.90;;
60352;SDS011;46196;52.970;6.954;2023-07-09T10:52:07;9.00;;;5.63;;
60352;SDS011;46196;52.970;6.954;2023-07-09T10:57:25;9.80;;;5.63;;
60352;SDS011;46196;52.970;6.954;2023-07-09T10:59:52;9.32;;;5.90;;
60352;SDS011;46196;52.970;6.954;2023-07-09T11:02:32;8.95;;;5.60;;
60352;SDS011;46196;52.970;6.954;2023-07-09T11:04:59;10.73;;;5.55;;
60352;SDS011;46196;52.970;6.954;2023-07-09T11:07:27;9.93;;;5.65;;
60352;SDS011;46196;52.970;6.954;2023-07-09T11:09:55;11.88;;;5.68;;
60352;SDS011;46196;52.970;6.954;2023-07-09T11:12:32;8.15;;;5.35;;
60352;SDS011;46196;52.970;6.954;2023-07-09T11:15:01;8.13;;;5.18;;
60352;SDS011;46196;52.970;6.954;2023-07-09T11:17:28;9.30;;;5.38;;
60352;SDS011;46196;52.970;6.954;2023-07-09T11:19:55;12.77;;;5.78;;
60352;SDS011;46196;52.970;6.954;2023-07-09T11:22:23;8.82;;;5.40;;
60352;SDS011;46196;52.970;6.954;2023-07-09T11:24:51;9.55;;;5.38;;
60352;SDS011;46196;52.970;6.954;2023-07-09T11:27:21;10.32;;;5.35;;
60352;SDS011;46196;52.970;6.954;2023-07-09T11:29:48;8.85;;;5.72;;
60352;SDS011;46196;52.970;6.954;2023-07-09T11:32:22;10.27;;;5.57;;
60352;SDS011;46196;52.970;6.954;2023-07-09T11:34:48;10.77;;;5.13;;
60352;SDS011;46196;52.970;6.954;2023-07-09T11:37:14;10.45;;;5.32;;
60352;SDS011;46196;52.970;6.954;2023-07-09T11:44:49;10.57;;;5.30;;
60352;SDS011;46196;52.970;6.954;2023-07-09T11:47:21;7.72;;;5.10;;
60352;SDS011;46196;52.970;6.954;2023-07-09T11:49:50;10.55;;;5.35;;
60352;SDS011;46196;52.970;6.954;2023-07-09T11:52:18;9.23;;;5.57;;
60352;SDS011;46196;52.970;6.954;2023-07-09T11:54:46;11.50;;;5.30;;
60352;SDS011;46196;52.970;6.954;2023-07-09T11:57:12;9.10;;;5.70;;
60352;SDS011;46196;52.970;6.954;2023-07-09T11:59:40;8.75;;;5.25;;
60352;SDS011;46196;52.970;6.954;2023-07-09T12:02:12;11.82;;;4.82;;
60352;SDS011;46196;52.970;6.954;2023-07-09T12:04:39;7.35;;;5.10;;
60352;SDS011;46196;52.970;6.954;2023-07-09T12:07:06;9.15;;;5.50;;
60352;SDS011;46196;52.970;6.954;2023-07-09T12:09:36;8.80;;;5.15;;
60352;SDS011;46196;52.970;6.954;2023-07-09T12:12:03;7.53;;;5.50;;
60352;SDS011;46196;52.970;6.954;2023-07-09T12:14:29;7.95;;;4.78;;
60352;SDS011;46196;52.970;6.954;2023-07-09T12:16:55;8.80;;;4.95;;
60352;SDS011;46196;52.970;6.954;2023-07-09T12:19:22;8.82;;;4.68;;
60352;SDS011;46196;52.970;6.954;2023-07-09T12:21:49;8.80;;;5.23;;
60352;SDS011;46196;52.970;6.954;2023-07-09T12:24:25;6.97;;;5.30;;
60352;SDS011;46196;52.970;6.954;2023-07-09T12:29:18;7.95;;;4.97;;
60352;SDS011;46196;52.970;6.954;2023-07-09T12:31:44;9.35;;;5.03;;
60352;SDS011;46196;52.970;6.954;2023-07-09T12:34:12;8.15;;;4.85;;
60352;SDS011;46196;52.970;6.954;2023-07-09T12:36:41;7.32;;;4.72;;
60352;SDS011;46196;52.970;6.954;2023-07-09T12:39:09;8.05;;;4.13;;
60352;SDS011;46196;52.970;6.954;2023-07-09T12:41:38;6.20;;;4.45;;
60352;SDS011;46196;52.970;6.954;2023-07-09T12:44:05;7.83;;;4.77;;
60352;SDS011;46196;52.970;6.954;2023-07-09T12:46:31;8.25;;;4.82;;
60352;SDS011;46196;52.970;6.954;2023-07-09T12:48:57;8.05;;;4.40;;
60352;SDS011;46196;52.970;6.954;2023-07-09T12:51:24;6.88;;;4.63;;
60352;SDS011;46196;52.970;6.954;2023-07-09T12:54:00;7.33;;;4.93;;
60352;SDS011;46196;52.970;6.954;2023-07-09T12:56:27;10.23;;;4.53;;
60352;SDS011;46196;52.970;6.954;2023-07-09T12:58:56;8.30;;;4.45;;
60352;SDS011;46196;52.970;6.954;2023-07-09T13:01:22;7.72;;;4.78;;
60352;SDS011;46196;52.970;6.954;2023-07-09T13:03:54;6.55;;;4.60;;
60352;SDS011;46196;52.970;6.954;2023-07-09T13:06:34;7.93;;;4.20;;
60352;SDS011;46196;52.970;6.954;2023-07-09T13:09:00;7.72;;;4.95;;
60352;SDS011;46196;52.970;6.954;2023-07-09T13:11:36;6.07;;;4.45;;
60352;SDS011;46196;52.970;6.954;2023-07-09T13:14:03;6.53;;;4.28;;
60352;SDS011;46196;52.970;6.954;2023-07-09T13:16:30;7.63;;;4.85;;
60352;SDS011;46196;52.970;6.954;2023-07-09T13:19:04;7.00;;;4.50;;
60352;SDS011;46196;52.970;6.954;2023-07-09T13:21:31;10.25;;;5.05;;
60352;SDS011;46196;52.970;6.954;2023-07-09T13:23:56;7.93;;;4.53;;
60352;SDS011;46196;52.970;6.954;2023-07-09T13:26:22;9.95;;;5.10;;
60352;SDS011;46196;52.970;6.954;2023-07-09T13:28:48;6.03;;;4.35;;
60352;SDS011;46196;52.970;6.954;2023-07-09T13:31:16;10.82;;;5.43;;
60352;SDS011;46196;52.970;6.954;2023-07-09T13:33:50;11.25;;;5.32;;
60352;SDS011;46196;52.970;6.954;2023-07-09T13:36:19;6.35;;;4.82;;
60352;SDS011;46196;52.970;6.954;2023-07-09T13:38:45;8.30;;;4.82;;
60352;SDS011;46196;52.970;6.954;2023-07-09T13:41:12;8.13;;;4.68;;
60352;SDS011;46196;52.970;6.954;2023-07-09T13:43:44;6.97;;;4.22;;
60352;SDS011;46196;52.970;6.954;2023-07-09T13:46:11;7.40;;;4.38;;
60352;SDS011;46196;52.970;6.954;2023-07-09T13:48:38;9.90;;;4.70;;
60352;SDS011;46196;52.970;6.954;2023-07-09T13:51:15;7.60;;;4.43;;
60352;SDS011;46196;52.970;6.954;2023-07-09T13:53:47;9.82;;;4.43;;
60352;SDS011;46196;52.970;6.954;2023-07-09T13:56:15;7.47;;;4.50;;
60352;SDS011;46196;52.970;6.954;2023-07-09T13:58:41;12.13;;;4.72;;
60352;SDS011;46196;52.970;6.954;2023-07-09T14:01:11;9.60;;;5.32;;
60352;SDS011;46196;52.970;6.954;2023-07-09T14:03:39;8.10;;;4.70;;
60352;SDS011;46196;52.970;6.954;2023-07-09T14:06:08;8.80;;;4.55;;
60352;SDS011;46196;52.970;6.954;2023-07-09T14:08:37;6.35;;;4.40;;
60352;SDS011;46196;52.970;6.954;2023-07-09T14:11:02;8.43;;;5.13;;
60352;SDS011;46196;52.970;6.954;2023-07-09T14:13:32;8.27;;;4.53;;
60352;SDS011;46196;52.970;6.954;2023-07-09T14:15:58;7.90;;;5.00;;
60352;SDS011;46196;52.970;6.954;2023-07-09T14:18:24;8.25;;;4.50;;
60352;SDS011;46196;52.970;6.954;2023-07-09T14:20:51;8.23;;;4.87;;
60352;SDS011;46196;52.970;6.954;2023-07-09T14:23:18;9.27;;;4.97;;
60352;SDS011;46196;52.970;6.954;2023-07-09T14:25:45;6.18;;;4.55;;
60352;SDS011;46196;52.970;6.954;2023-07-09T14:28:15;7.32;;;4.65;;
60352;SDS011;46196;52.970;6.954;2023-07-09T14:30:43;10.20;;;4.47;;
60352;SDS011;46196;52.970;6.954;2023-07-09T14:33:15;7.90;;;4.80;;
60352;SDS011;46196;52.970;6.954;2023-07-09T14:35:43;8.23;;;4.00;;
60352;SDS011;46196;52.970;6.954;2023-07-09T14:40:45;9.23;;;5.00;;
60352;SDS011;46196;52.970;6.954;2023-07-09T14:43:13;9.70;;;4.43;;
60352;SDS011;46196;52.970;6.954;2023-07-09T14:45:39;7.80;;;4.40;;
60352;SDS011;46196;52.970;6.954;2023-07-09T14:48:12;10.77;;;4.78;;
60352;SDS011;46196;52.970;6.954;2023-07-09T14:50:40;7.20;;;4.40;;
60352;SDS011;46196;52.970;6.954;2023-07-09T14:53:14;7.17;;;4.60;;
60352;SDS011;46196;52.970;6.954;2023-07-09T14:55:51;9.48;;;4.60;;
60352;SDS011;46196;52.970;6.954;2023-07-09T14:58:22;6.55;;;4.50;;
60352;SDS011;46196;52.970;6.954;2023-07-09T15:00:48;10.55;;;5.55;;
60352;SDS011;46196;52.970;6.954;2023-07-09T15:03:18;10.25;;;4.70;;
60352;SDS011;46196;52.970;6.954;2023-07-09T15:05:45;8.32;;;5.40;;
60352;SDS011;46196;52.970;6.954;2023-07-09T15:08:15;8.82;;;5.55;;
60352;SDS011;46196;52.970;6.954;2023-07-09T15:10:43;9.82;;;5.75;;
60352;SDS011;46196;52.970;6.954;2023-07-09T15:13:16;8.00;;;5.35;;
60352;SDS011;46196;52.970;6.954;2023-07-09T15:15:51;8.50;;;5.22;;
60352;SDS011;46196;52.970;6.954;2023-07-09T15:18:17;8.00;;;4.82;;
60352;SDS011;46196;52.970;6.954;2023-07-09T15:20:46;8.30;;;5.03;;
60352;SDS011;46196;52.970;6.954;2023-07-09T15:23:14;12.50;;;5.22;;
60352;SDS011;46196;52.970;6.954;2023-07-09T15:25:40;9.07;;;5.15;;
60352;SDS011;46196;52.970;6.954;2023-07-09T15:28:05;8.82;;;5.20;;
60352;SDS011;46196;52.970;6.954;2023-07-09T15:30:35;8.23;;;5.13;;